Time;durP1;ratioP1;P1;durP2;ratioP2;P2;SDS_P1;SDS_P2;PMS_P1;PMS_P2;Temp;Humidity;BMP_temperature;BMP_pressure;BME280_temperature;BME280_humidity;BME280_pressure;Samples;Min_cycle;Max_cycle;Signal;HPM_P1;HPM_P2
2021/07/24 00:00:24;;;;;;;;;;;28.70;93.20;;;;;;5124380;28;19900;-41
2021/07/24 00:02:50;;;;;;;;;;;28.70;93.20;;;;;;5125556;28;19907;-48
2021/07/24 00:05:16;;;;;;;;;;;28.70;93.30;;;;;;5125320;28;19908;-38
2021/07/24 00:07:42;;;;;;;;;;;28.60;93.40;;;;;;5125161;28;19908;-40
2021/07/24 00:10:09;;;;;;;;;;;28.60;93.20;;;;;;5124183;28;19907;-44
2021/07/24 00:12:35;;;;;;;;;;;28.60;93.10;;;;;;5124132;28;19911;-45
2021/07/24 00:15:01;;;;;;;;;;;28.70;93.00;;;;;;5123682;28;19900;-43
2021/07/24 00:17:28;;;;;;;;;;;28.70;92.90;;;;;;5106551;28;19957;-42
2021/07/24 00:19:54;;;;;;;;;;;28.70;92.80;;;;;;5124391;28;20091;-45
2021/07/24 00:22:23;;;;;;;;;;;28.70;92.90;;;;;;5124640;28;19987;-47
2021/07/24 00:24:49;;;;;;;;;;;28.70;93.00;;;;;;5124310;28;19910;-52
2021/07/24 00:27:15;;;;;;;;;;;28.70;92.90;;;;;;5124612;28;19914;-48
2021/07/24 00:29:41;;;;;;;;;;;28.70;92.90;;;;;;5124820;28;19899;-49
2021/07/24 00:32:08;;;;;;;;;;;28.70;93.00;;;;;;5125166;28;19970;-45
2021/07/24 00:34:34;;;;;;;;;;;28.70;93.10;;;;;;5124806;28;20109;-43
2021/07/24 00:37:00;;;;;;;;;;;28.70;93.10;;;;;;5106355;28;20107;-49
2021/07/24 00:39:27;;;;;;;;;;;28.70;93.20;;;;;;5124826;28;19904;-46
2021/07/24 00:42:13;;;;;;;;;;;28.70;93.20;;;;;;5124877;28;19907;-45
2021/07/24 00:44:44;;;;;;;;;;;28.70;93.30;;;;;;5113942;28;20141;-48
2021/07/24 00:47:13;;;;;;;;;;;28.70;93.40;;;;;;5124969;28;19967;-51
2021/07/24 00:49:40;;;;;;;;;;;28.70;93.40;;;;;;5124668;28;20266;-45
2021/07/24 00:52:06;;;;;;;;;;;28.70;93.40;;;;;;5106758;28;19904;-44
2021/07/24 00:54:32;;;;;;;;;;;28.70;93.30;;;;;;5124495;28;19978;-44
2021/07/24 00:56:59;;;;;;;;;;;28.70;93.30;;;;;;5125056;28;19912;-46
2021/07/24 00:59:25;;;;;;;;;;;28.70;93.30;;;;;;5109571;28;19904;-45
2021/07/24 01:01:52;;;;;;;;;;;28.70;93.30;;;;;;5128794;28;19974;-45
2021/07/24 01:04:19;;;;;;;;;;;28.70;93.40;;;;;;5128709;28;19903;-45
2021/07/24 01:06:46;;;;;;;;;;;28.70;93.50;;;;;;5110497;28;19904;-48
2021/07/24 01:09:12;;;;;;;;;;;28.70;93.40;;;;;;5128592;28;19904;-48
2021/07/24 01:11:39;;;;;;;;;;;28.70;93.50;;;;;;5128582;28;19904;-46
2021/07/24 01:14:05;;;;;;;;;;;28.70;93.40;;;;;;5127956;28;20157;-48
2021/07/24 01:16:31;;;;;;;;;;;28.70;93.50;;;;;;5128345;28;19913;-47
2021/07/24 01:18:58;;;;;;;;;;;28.60;93.50;;;;;;5128276;28;19927;-47
2021/07/24 01:21:25;;;;;;;;;;;28.60;93.50;;;;;;5128410;28;19903;-44
2021/07/24 01:23:51;;;;;;;;;;;28.60;93.50;;;;;;5128152;28;19903;-41
2021/07/24 01:26:29;;;;;;;;;;;28.60;93.60;;;;;;5124765;28;19913;-51
2021/07/24 01:28:56;;;;;;;;;;;28.60;93.70;;;;;;5116033;28;19904;-44
2021/07/24 01:31:23;;;;;;;;;;;28.60;93.70;;;;;;5121276;28;19907;-42
2021/07/24 01:33:49;;;;;;;;;;;28.60;93.80;;;;;;5112377;28;19904;-41
2021/07/24 01:36:16;;;;;;;;;;;28.60;93.80;;;;;;5109964;28;19978;-43
2021/07/24 01:38:42;;;;;;;;;;;28.50;93.90;;;;;;5107440;28;19906;-41
2021/07/24 01:41:10;;;;;;;;;;;28.50;94.10;;;;;;5114553;28;19908;-50
2021/07/24 01:43:37;;;;;;;;;;;28.50;94.30;;;;;;5108856;28;19941;-41
2021/07/24 01:46:04;;;;;;;;;;;28.50;94.30;;;;;;5123739;28;19908;-47
2021/07/24 01:53:54;;;;;;;;;;;28.50;94.30;;;;;;5107252;28;19954;-41
2021/07/24 01:56:22;;;;;;;;;;;28.50;94.30;;;;;;5126017;28;19956;-42
2021/07/24 01:58:48;;;;;;;;;;;28.50;94.40;;;;;;5127619;28;19906;-43
2021/07/24 02:01:15;;;;;;;;;;;28.40;94.50;;;;;;5109762;28;19920;-43
2021/07/24 02:03:44;;;;;;;;;;;28.40;94.50;;;;;;5106973;28;20092;-44
2021/07/24 02:06:11;;;;;;;;;;;28.40;94.50;;;;;;5122807;28;20218;-41
2021/07/24 02:08:38;;;;;;;;;;;28.40;94.60;;;;;;5123649;28;19911;-46
2021/07/24 02:11:05;;;;;;;;;;;28.40;94.60;;;;;;5127204;28;19908;-42
2021/07/24 02:13:31;;;;;;;;;;;28.40;94.60;;;;;;5127303;28;19907;-44
2021/07/24 02:15:58;;;;;;;;;;;28.40;94.60;;;;;;5126965;28;19938;-44
2021/07/24 02:18:24;;;;;;;;;;;28.40;94.70;;;;;;5121060;28;19904;-44
2021/07/24 02:20:52;;;;;;;;;;;28.30;94.70;;;;;;5119845;28;19900;-42
2021/07/24 02:23:19;;;;;;;;;;;28.30;94.90;;;;;;5125331;28;20148;-45
2021/07/24 02:25:45;;;;;;;;;;;28.30;94.80;;;;;;5126952;28;19953;-43
2021/07/24 02:28:11;;;;;;;;;;;28.30;94.70;;;;;;5127021;28;19900;-41
2021/07/24 02:30:38;;;;;;;;;;;28.30;94.60;;;;;;5108867;28;19941;-49
2021/07/24 02:33:04;;;;;;;;;;;28.30;94.40;;;;;;5125100;28;20321;-41
2021/07/24 02:35:31;;;;;;;;;;;28.30;94.10;;;;;;5127215;28;19908;-41
2021/07/24 02:37:57;;;;;;;;;;;28.30;94.00;;;;;;5123455;28;20108;-39
2021/07/24 02:40:24;;;;;;;;;;;28.30;93.90;;;;;;5097422;28;19906;-43
2021/07/24 02:42:50;;;;;;;;;;;28.20;93.70;;;;;;5119211;28;19944;-46
2021/07/24 02:45:17;;;;;;;;;;;28.20;93.70;;;;;;5117257;28;19981;-43
2021/07/24 02:47:43;;;;;;;;;;;28.20;93.60;;;;;;5120394;28;19915;-44
2021/07/24 02:50:10;;;;;;;;;;;28.10;93.70;;;;;;5125805;28;20183;-46
2021/07/24 02:52:36;;;;;;;;;;;28.10;93.80;;;;;;5115947;28;19935;-43
2021/07/24 02:55:02;;;;;;;;;;;28.00;93.70;;;;;;5100491;28;19906;-41
2021/07/24 02:57:28;;;;;;;;;;;27.90;93.70;;;;;;5119815;28;19933;-42
2021/07/24 02:59:55;;;;;;;;;;;27.90;93.70;;;;;;5126280;28;19906;-39
2021/07/24 03:02:21;;;;;;;;;;;27.90;93.80;;;;;;5118781;28;19908;-49
2021/07/24 03:04:47;;;;;;;;;;;27.90;93.90;;;;;;5109013;28;19931;-42
2021/07/24 03:07:13;;;;;;;;;;;27.90;93.90;;;;;;5113157;28;19952;-44
2021/07/24 03:09:39;;;;;;;;;;;27.90;93.80;;;;;;5106490;28;20184;-43
2021/07/24 03:12:06;;;;;;;;;;;27.90;93.90;;;;;;5114581;28;19908;-44
2021/07/24 03:14:32;;;;;;;;;;;27.80;93.90;;;;;;5125438;28;19940;-44
2021/07/24 03:16:58;;;;;;;;;;;27.90;93.90;;;;;;5125786;28;19954;-48
2021/07/24 03:19:25;;;;;;;;;;;27.90;93.90;;;;;;5125759;28;19979;-42
2021/07/24 03:21:51;;;;;;;;;;;27.90;93.90;;;;;;5113071;28;19916;-46
2021/07/24 03:24:17;;;;;;;;;;;27.90;93.90;;;;;;5115565;28;19987;-46
2021/07/24 03:26:43;;;;;;;;;;;27.90;93.90;;;;;;5113579;28;20203;-51
2021/07/24 03:29:10;;;;;;;;;;;27.90;94.00;;;;;;5095434;28;19907;-43
2021/07/24 03:31:36;;;;;;;;;;;27.90;94.00;;;;;;5119591;28;19915;-44
2021/07/24 03:34:02;;;;;;;;;;;27.90;94.00;;;;;;5106741;28;19900;-48
2021/07/24 03:36:29;;;;;;;;;;;27.90;94.10;;;;;;5087058;28;19964;-51
2021/07/24 03:38:55;;;;;;;;;;;27.90;94.10;;;;;;5120155;28;19918;-47
2021/07/24 03:41:21;;;;;;;;;;;27.90;94.20;;;;;;5105315;28;20207;-51
2021/07/24 03:43:47;;;;;;;;;;;27.90;94.20;;;;;;5108357;28;19899;-48
2021/07/24 03:46:17;;;;;;;;;;;27.90;94.20;;;;;;5126396;28;19907;-43
2021/07/24 03:48:44;;;;;;;;;;;27.90;94.20;;;;;;5125322;28;19906;-45
2021/07/24 03:51:11;;;;;;;;;;;27.90;94.10;;;;;;5120876;28;19908;-43
2021/07/24 03:53:38;;;;;;;;;;;27.90;94.00;;;;;;5104584;28;19904;-41
2021/07/24 03:56:04;;;;;;;;;;;27.90;94.00;;;;;;5105441;28;19983;-44
2021/07/24 03:58:30;;;;;;;;;;;27.90;93.90;;;;;;5086231;28;19903;-43
2021/07/24 04:00:59;;;;;;;;;;;27.80;94.00;;;;;;5104893;28;19961;-46
2021/07/24 04:03:25;;;;;;;;;;;27.90;93.90;;;;;;5103295;28;20210;-52
2021/07/24 04:05:55;;;;;;;;;;;27.80;93.80;;;;;;5087260;28;19938;-43
2021/07/24 04:08:22;;;;;;;;;;;27.80;93.70;;;;;;5103231;28;20231;-45
2021/07/24 04:10:48;;;;;;;;;;;27.90;93.60;;;;;;5105179;28;19900;-44
2021/07/24 04:13:15;;;;;;;;;;;27.90;93.60;;;;;;5104105;28;19900;-46
2021/07/24 04:15:41;;;;;;;;;;;27.80;93.50;;;;;;5116742;28;20206;-44
2021/07/24 04:18:08;;;;;;;;;;;27.80;93.40;;;;;;5089891;28;19919;-53
2021/07/24 04:20:41;;;;;;;;;;;27.80;93.50;;;;;;5104456;28;20203;-43
2021/07/24 04:23:10;;;;;;;;;;;27.80;93.40;;;;;;5104743;28;19908;-43
2021/07/24 04:25:36;;;;;;;;;;;27.80;93.30;;;;;;5104456;28;20218;-42
2021/07/24 04:28:03;;;;;;;;;;;27.80;93.40;;;;;;5086285;28;19945;-43
2021/07/24 04:30:37;;;;;;;;;;;27.80;93.30;;;;;;5104324;28;19928;-42
2021/07/24 04:33:03;;;;;;;;;;;27.80;93.30;;;;;;5086588;28;19993;-42
2021/07/24 04:35:29;;;;;;;;;;;27.80;93.30;;;;;;5104691;28;19931;-45
2021/07/24 04:37:56;;;;;;;;;;;27.70;93.30;;;;;;5102670;28;19924;-43
2021/07/24 04:40:22;;;;;;;;;;;27.70;93.30;;;;;;5104501;28;19903;-44
2021/07/24 04:42:48;;;;;;;;;;;27.70;93.20;;;;;;5086301;28;19915;-42
2021/07/24 04:45:15;;;;;;;;;;;27.70;93.30;;;;;;5086356;28;19900;-43
2021/07/24 04:47:42;;;;;;;;;;;27.70;93.30;;;;;;5104298;28;19908;-43
2021/07/24 04:50:08;;;;;;;;;;;27.70;93.40;;;;;;5104407;28;19900;-44
2021/07/24 04:52:38;;;;;;;;;;;27.70;93.40;;;;;;5104062;28;19915;-42
2021/07/24 04:55:04;;;;;;;;;;;27.70;93.40;;;;;;5104323;28;19900;-42
2021/07/24 04:57:34;;;;;;;;;;;27.70;93.40;;;;;;5103778;28;19912;-43
2021/07/24 05:00:00;;;;;;;;;;;27.70;93.50;;;;;;5086677;28;19915;-46
2021/07/24 05:02:27;;;;;;;;;;;27.70;93.50;;;;;;5105080;28;19908;-42
2021/07/24 05:04:54;;;;;;;;;;;27.70;93.60;;;;;;5104635;28;19922;-44
2021/07/24 05:07:21;;;;;;;;;;;27.70;93.60;;;;;;5104095;28;19950;-45
2021/07/24 05:09:47;;;;;;;;;;;27.70;93.80;;;;;;5104608;28;19909;-42
2021/07/24 05:12:13;;;;;;;;;;;27.60;93.50;;;;;;5104603;28;19915;-50
2021/07/24 05:14:40;;;;;;;;;;;27.70;93.60;;;;;;5104368;28;20127;-50
2021/07/24 05:17:06;;;;;;;;;;;27.70;93.70;;;;;;5104501;28;19915;-48
2021/07/24 05:19:35;;;;;;;;;;;27.60;93.70;;;;;;5103866;28;19941;-49
2021/07/24 05:22:02;;;;;;;;;;;27.60;93.70;;;;;;5104188;28;19908;-45
2021/07/24 05:24:28;;;;;;;;;;;27.60;93.70;;;;;;5104020;28;20188;-45
2021/07/24 05:26:54;;;;;;;;;;;27.60;93.70;;;;;;5103956;28;19908;-51
2021/07/24 05:29:20;;;;;;;;;;;27.60;93.70;;;;;;5086294;28;19900;-42
2021/07/24 05:31:46;;;;;;;;;;;27.60;93.70;;;;;;5085811;28;19943;-45
2021/07/24 05:34:13;;;;;;;;;;;27.60;93.80;;;;;;5104341;28;19900;-43
2021/07/24 05:36:44;;;;;;;;;;;27.60;93.80;;;;;;5103487;28;19939;-43
2021/07/24 05:39:11;;;;;;;;;;;27.60;93.80;;;;;;5103306;28;19903;-48
2021/07/24 05:41:37;;;;;;;;;;;27.60;93.70;;;;;;5103929;28;19908;-45
2021/07/24 05:44:03;;;;;;;;;;;27.60;93.70;;;;;;5104304;28;20272;-46
2021/07/24 05:46:29;;;;;;;;;;;27.60;94.00;;;;;;5107545;28;19908;-44
2021/07/24 05:48:55;;;;;;;;;;;27.60;93.80;;;;;;5107552;28;19907;-49
2021/07/24 05:51:22;;;;;;;;;;;27.60;93.80;;;;;;5107358;28;19949;-45
2021/07/24 05:53:48;;;;;;;;;;;27.60;93.80;;;;;;5107148;28;19907;-44
2021/07/24 05:56:14;;;;;;;;;;;27.60;93.90;;;;;;5107156;28;20215;-45
2021/07/24 05:58:40;;;;;;;;;;;27.60;93.90;;;;;;5107083;28;19907;-45
2021/07/24 06:01:10;;;;;;;;;;;27.50;93.80;;;;;;5107028;28;19915;-45
2021/07/24 06:03:36;;;;;;;;;;;27.50;93.80;;;;;;5107090;28;19900;-45
2021/07/24 06:06:03;;;;;;;;;;;27.50;93.80;;;;;;5106991;28;19907;-48
2021/07/24 06:08:29;;;;;;;;;;;27.50;93.70;;;;;;5106921;28;19900;-46
2021/07/24 06:10:59;;;;;;;;;;;27.50;93.60;;;;;;5107130;28;19901;-49
2021/07/24 06:13:25;;;;;;;;;;;27.50;93.50;;;;;;5106708;28;20092;-52
2021/07/24 06:15:51;;;;;;;;;;;27.50;93.50;;;;;;5106948;28;19900;-48
2021/07/24 06:18:17;;;;;;;;;;;27.50;93.50;;;;;;5106783;28;19904;-50
2021/07/24 06:20:44;;;;;;;;;;;27.40;93.40;;;;;;5106532;28;19900;-43
2021/07/24 06:23:10;;;;;;;;;;;27.40;93.50;;;;;;5106862;28;20191;-46
2021/07/24 06:25:36;;;;;;;;;;;27.40;93.40;;;;;;5106476;28;19971;-45
2021/07/24 06:28:02;;;;;;;;;;;27.40;93.30;;;;;;5107121;28;20247;-43
2021/07/24 06:30:28;;;;;;;;;;;27.40;93.40;;;;;;5106409;28;19900;-45
2021/07/24 06:32:55;;;;;;;;;;;27.40;93.40;;;;;;5106983;28;19931;-45
2021/07/24 06:35:21;;;;;;;;;;;27.40;93.40;;;;;;5106470;28;19907;-45
2021/07/24 06:37:47;;;;;;;;;;;27.40;93.50;;;;;;5106072;28;19916;-47
2021/07/24 06:40:14;;;;;;;;;;;27.40;93.60;;;;;;5106350;28;19904;-48
2021/07/24 06:42:40;;;;;;;;;;;27.40;93.70;;;;;;5106906;28;20127;-47
2021/07/24 06:45:06;;;;;;;;;;;27.40;93.70;;;;;;5106222;28;19937;-51
2021/07/24 06:47:32;;;;;;;;;;;27.40;93.70;;;;;;5106713;28;19931;-47
2021/07/24 06:49:59;;;;;;;;;;;27.40;93.70;;;;;;5106166;28;19904;-45
2021/07/24 06:52:25;;;;;;;;;;;27.40;93.70;;;;;;5088200;28;19908;-46
2021/07/24 06:54:54;;;;;;;;;;;27.40;93.60;;;;;;5106230;28;19939;-45
2021/07/24 06:57:20;;;;;;;;;;;27.40;93.80;;;;;;5088068;28;19979;-46
2021/07/24 06:59:46;;;;;;;;;;;27.40;93.70;;;;;;5105869;28;19908;-50
2021/07/24 07:02:12;;;;;;;;;;;27.40;93.70;;;;;;5106431;28;19932;-43
2021/07/24 07:04:38;;;;;;;;;;;27.40;93.70;;;;;;5106089;28;19904;-49
2021/07/24 07:07:06;;;;;;;;;;;27.30;93.70;;;;;;5106011;28;19904;-45
2021/07/24 07:09:32;;;;;;;;;;;27.30;93.70;;;;;;5105780;28;20078;-42
2021/07/24 07:11:58;;;;;;;;;;;27.40;93.80;;;;;;5106159;28;19912;-46
2021/07/24 07:14:25;;;;;;;;;;;27.30;93.90;;;;;;5105631;28;20100;-49
2021/07/24 07:16:51;;;;;;;;;;;27.30;94.00;;;;;;5105566;28;20147;-49
2021/07/24 07:19:18;;;;;;;;;;;27.30;93.90;;;;;;5105544;28;19963;-46
2021/07/24 07:21:44;;;;;;;;;;;27.30;93.80;;;;;;5105781;28;19911;-44
2021/07/24 07:24:11;;;;;;;;;;;27.30;93.80;;;;;;5105426;28;19904;-54
2021/07/24 07:26:37;;;;;;;;;;;27.30;93.60;;;;;;5105427;28;19911;-45
2021/07/24 07:29:03;;;;;;;;;;;27.30;93.60;;;;;;5105500;28;19943;-46
2021/07/24 07:31:30;;;;;;;;;;;27.30;93.70;;;;;;5105327;28;19904;-50
2021/07/24 07:33:56;;;;;;;;;;;27.30;93.70;;;;;;5105512;28;19903;-44
2021/07/24 07:36:23;;;;;;;;;;;27.20;93.60;;;;;;5105018;28;19919;-45
2021/07/24 07:38:49;;;;;;;;;;;27.20;93.60;;;;;;5105141;28;20232;-43
2021/07/24 07:41:17;;;;;;;;;;;27.20;93.60;;;;;;5105404;28;19908;-43
2021/07/24 07:43:44;;;;;;;;;;;27.20;93.70;;;;;;5105095;28;19906;-42
2021/07/24 07:46:10;;;;;;;;;;;27.10;93.70;;;;;;5105176;28;19908;-41
2021/07/24 07:48:36;;;;;;;;;;;27.10;93.70;;;;;;5105060;28;19946;-46
2021/07/24 07:51:06;;;;;;;;;;;27.20;93.80;;;;;;5105009;28;20006;-45
2021/07/24 07:53:33;;;;;;;;;;;27.10;93.80;;;;;;5104802;28;19904;-44
2021/07/24 07:55:59;;;;;;;;;;;27.10;93.80;;;;;;5104921;28;19973;-44
2021/07/24 07:58:26;;;;;;;;;;;27.10;93.90;;;;;;5104854;28;19931;-50
2021/07/24 08:00:54;;;;;;;;;;;27.10;94.00;;;;;;5104633;28;19907;-48
2021/07/24 08:03:24;;;;;;;;;;;27.10;94.00;;;;;;5104668;28;19977;-46
2021/07/24 08:05:54;;;;;;;;;;;27.10;94.10;;;;;;5104792;28;19903;-46
2021/07/24 08:08:20;;;;;;;;;;;27.10;94.10;;;;;;5104050;28;19910;-48
2021/07/24 08:10:46;;;;;;;;;;;27.10;94.30;;;;;;5104779;28;20147;-44
2021/07/24 08:13:13;;;;;;;;;;;27.00;94.10;;;;;;5086931;28;19996;-45
2021/07/24 08:15:39;;;;;;;;;;;27.00;94.10;;;;;;5104326;28;19971;-45
2021/07/24 08:18:07;;;;;;;;;;;27.00;94.10;;;;;;5104558;28;19931;-43
2021/07/24 08:20:33;;;;;;;;;;;27.00;94.20;;;;;;5104513;28;19957;-41
2021/07/24 08:23:00;;;;;;;;;;;27.00;94.20;;;;;;5104943;28;19904;-44
2021/07/24 08:25:26;;;;;;;;;;;27.00;94.30;;;;;;5104320;28;19950;-44
2021/07/24 08:27:53;;;;;;;;;;;27.00;94.30;;;;;;5105017;28;19904;-47
2021/07/24 08:30:19;;;;;;;;;;;26.90;94.30;;;;;;5104511;28;19904;-48
2021/07/24 08:32:45;;;;;;;;;;;27.00;94.30;;;;;;5104932;28;19908;-45
2021/07/24 08:35:12;;;;;;;;;;;26.90;94.20;;;;;;5104330;28;19946;-54
2021/07/24 08:37:38;;;;;;;;;;;26.90;94.20;;;;;;5088660;28;20241;-44
2021/07/24 08:40:04;;;;;;;;;;;26.90;94.30;;;;;;5083929;28;20096;-47
2021/07/24 08:42:39;;;;;;;;;;;26.90;94.30;;;;;;5084582;28;20168;-44
2021/07/24 08:45:07;;;;;;;;;;;26.90;94.30;;;;;;5084185;28;19901;-47
2021/07/24 08:47:35;;;;;;;;;;;26.90;94.20;;;;;;5083971;28;19975;-46
2021/07/24 08:50:02;;;;;;;;;;;26.90;94.20;;;;;;5084109;28;19900;-45
2021/07/24 08:52:29;;;;;;;;;;;26.90;94.20;;;;;;5084078;28;20092;-46
2021/07/24 08:54:55;;;;;;;;;;;26.90;94.20;;;;;;5084021;28;19901;-50
2021/07/24 08:57:32;;;;;;;;;;;26.90;94.10;;;;;;5084286;28;19951;-47
2021/07/24 08:59:59;;;;;;;;;;;26.90;94.10;;;;;;5083966;28;20284;-50
2021/07/24 09:02:29;;;;;;;;;;;26.90;94.10;;;;;;5083821;28;20137;-46
2021/07/24 09:04:57;;;;;;;;;;;26.80;94.00;;;;;;5083794;28;19986;-44
2021/07/24 09:07:27;;;;;;;;;;;26.80;94.00;;;;;;5084097;28;19954;-45
2021/07/24 09:09:58;;;;;;;;;;;26.80;93.90;;;;;;5083720;28;19904;-44
2021/07/24 09:12:24;;;;;;;;;;;26.80;93.80;;;;;;5083936;28;19915;-44
2021/07/24 09:14:51;;;;;;;;;;;26.80;93.70;;;;;;5083977;28;19968;-54
2021/07/24 09:17:19;;;;;;;;;;;26.80;93.70;;;;;;5083876;28;19912;-44
2021/07/24 09:19:45;;;;;;;;;;;26.80;93.60;;;;;;5085242;28;20104;-41
2021/07/24 09:22:24;;;;;;;;;;;26.70;93.60;;;;;;5087716;28;19908;-50
2021/07/24 09:25:09;;;;;;;;;;;26.70;93.50;;;;;;5087189;28;19904;-46
2021/07/24 09:27:36;;;;;;;;;;;26.70;93.50;;;;;;5087507;28;19947;-46
2021/07/24 09:30:03;;;;;;;;;;;26.70;93.50;;;;;;5087321;28;19900;-45
2021/07/24 09:32:30;;;;;;;;;;;26.70;93.50;;;;;;5087406;28;19908;-48
2021/07/24 09:34:56;;;;;;;;;;;26.70;93.40;;;;;;5087281;28;19900;-49
2021/07/24 09:37:26;;;;;;;;;;;26.70;93.40;;;;;;5100074;28;19955;-51
2021/07/24 09:40:15;;;;;;;;;;;26.60;93.40;;;;;;5107287;28;19940;-46
2021/07/24 09:42:41;;;;;;;;;;;26.60;93.40;;;;;;5089076;28;20180;-43
2021/07/24 09:45:08;;;;;;;;;;;26.60;93.50;;;;;;5107236;28;19904;-44
2021/07/24 09:47:34;;;;;;;;;;;26.60;93.50;;;;;;5107078;28;19983;-46
2021/07/24 09:50:13;;;;;;;;;;;26.60;93.40;;;;;;5107250;28;19904;-52
2021/07/24 09:52:51;;;;;;;;;;;26.60;93.50;;;;;;5107463;28;20123;-41
2021/07/24 09:55:25;;;;;;;;;;;26.60;93.60;;;;;;5106954;28;19900;-44
2021/07/24 09:57:57;;;;;;;;;;;26.60;93.70;;;;;;5107530;28;19920;-42
2021/07/24 10:00:24;;;;;;;;;;;26.50;93.60;;;;;;5106959;28;19911;-45
2021/07/24 10:03:03;;;;;;;;;;;26.60;93.60;;;;;;5107439;28;19907;-47
2021/07/24 10:05:34;;;;;;;;;;;26.60;93.60;;;;;;5107427;28;19900;-47
2021/07/24 10:08:02;;;;;;;;;;;26.60;93.90;;;;;;5107559;28;19908;-48
2021/07/24 10:10:28;;;;;;;;;;;26.50;93.60;;;;;;5107024;28;19971;-45
2021/07/24 10:12:55;;;;;;;;;;;26.50;93.70;;;;;;5107376;28;19915;-49
2021/07/24 10:15:22;;;;;;;;;;;26.50;93.70;;;;;;5106838;28;20157;-43
2021/07/24 10:17:48;;;;;;;;;;;26.50;93.70;;;;;;5106755;28;19919;-45
2021/07/24 10:20:15;;;;;;;;;;;26.50;93.70;;;;;;5106978;28;20192;-44
2021/07/24 10:22:41;;;;;;;;;;;26.50;93.80;;;;;;5106933;28;19914;-44
2021/07/24 10:25:08;;;;;;;;;;;26.40;93.80;;;;;;5106485;28;19900;-43
2021/07/24 10:27:36;;;;;;;;;;;26.40;93.80;;;;;;5106918;28;19953;-44
2021/07/24 10:30:04;;;;;;;;;;;26.40;93.80;;;;;;5106070;28;20096;-47
2021/07/24 10:32:31;;;;;;;;;;;26.40;93.80;;;;;;5106328;28;19995;-47
2021/07/24 10:34:58;;;;;;;;;;;26.40;93.80;;;;;;5106181;28;19971;-44
2021/07/24 10:37:44;;;;;;;;;;;26.40;93.80;;;;;;5106078;28;19915;-50
2021/07/24 10:40:16;;;;;;;;;;;26.40;93.90;;;;;;5106278;28;19900;-45
2021/07/24 10:42:44;;;;;;;;;;;26.40;93.90;;;;;;5106469;28;19943;-47
2021/07/24 10:45:29;;;;;;;;;;;26.30;93.80;;;;;;5106436;28;19904;-47
2021/07/24 10:48:13;;;;;;;;;;;26.30;94.10;;;;;;5106677;28;19943;-51
2021/07/24 10:50:55;;;;;;;;;;;26.30;93.80;;;;;;5105894;28;19906;-50
2021/07/24 10:53:22;;;;;;;;;;;26.30;93.60;;;;;;5105663;28;19900;-47
2021/07/24 10:55:49;;;;;;;;;;;26.30;93.50;;;;;;5105805;28;20096;-43
2021/07/24 10:58:17;;;;;;;;;;;26.30;93.50;;;;;;5105806;28;19904;-47
2021/07/24 11:00:53;;;;;;;;;;;26.30;93.50;;;;;;5105793;28;19908;-43
2021/07/24 11:03:32;;;;;;;;;;;26.30;93.50;;;;;;5105682;28;19900;-47
2021/07/24 11:05:59;;;;;;;;;;;26.30;93.50;;;;;;5105594;28;19927;-46
2021/07/24 11:08:44;;;;;;;;;;;26.30;93.40;;;;;;5105687;28;19922;-44
2021/07/24 11:11:10;;;;;;;;;;;26.30;93.40;;;;;;5105602;28;19908;-45
2021/07/24 11:13:46;;;;;;;;;;;26.30;93.50;;;;;;5105534;28;19900;-47
2021/07/24 11:16:12;;;;;;;;;;;26.30;93.40;;;;;;5105445;28;20108;-44
2021/07/24 11:18:38;;;;;;;;;;;26.30;93.40;;;;;;5105515;28;19946;-47
2021/07/24 11:21:05;;;;;;;;;;;26.30;93.40;;;;;;5105839;28;19950;-48
2021/07/24 11:23:31;;;;;;;;;;;26.30;93.30;;;;;;5105583;28;19941;-45
2021/07/24 11:26:03;;;;;;;;;;;26.30;93.40;;;;;;5087421;28;19900;-45
2021/07/24 11:28:29;;;;;;;;;;;26.30;93.50;;;;;;5105519;28;19900;-45
2021/07/24 11:30:59;;;;;;;;;;;26.30;93.50;;;;;;5105423;28;20092;-49
2021/07/24 11:33:29;;;;;;;;;;;26.30;93.50;;;;;;5105578;28;19900;-46
2021/07/24 11:36:00;;;;;;;;;;;26.30;93.30;;;;;;5105313;28;20069;-44
2021/07/24 11:38:26;;;;;;;;;;;26.40;93.10;;;;;;5105381;28;20192;-45
2021/07/24 11:40:59;;;;;;;;;;;26.50;93.00;;;;;;5105193;28;19904;-50
2021/07/24 11:43:26;;;;;;;;;;;26.50;92.70;;;;;;5104616;28;20041;-45
2021/07/24 11:46:00;;;;;;;;;;;26.60;92.80;;;;;;5105229;28;19974;-45
2021/07/24 11:48:26;;;;;;;;;;;26.60;92.90;;;;;;5105075;28;19904;-45
2021/07/24 11:50:59;;;;;;;;;;;26.60;92.70;;;;;;5105214;28;19936;-44
2021/07/24 11:53:25;;;;;;;;;;;26.70;92.60;;;;;;5104806;28;20049;-49
2021/07/24 11:55:52;;;;;;;;;;;26.70;92.60;;;;;;5105032;28;19941;-44
2021/07/24 11:58:19;;;;;;;;;;;26.80;92.40;;;;;;5104936;28;20102;-46
2021/07/24 12:00:46;;;;;;;;;;;26.80;92.30;;;;;;5104824;28;19904;-44
2021/07/24 12:03:14;;;;;;;;;;;26.90;92.40;;;;;;5104839;28;20299;-44
2021/07/24 12:05:40;;;;;;;;;;;26.90;92.00;;;;;;5104944;28;19908;-43
2021/07/24 12:08:07;;;;;;;;;;;26.90;92.10;;;;;;5104779;28;19967;-46
2021/07/24 12:10:35;;;;;;;;;;;26.90;92.20;;;;;;5104945;28;19900;-49
2021/07/24 12:13:01;;;;;;;;;;;26.90;92.10;;;;;;5105219;28;19903;-45
2021/07/24 12:15:47;;;;;;;;;;;26.90;92.10;;;;;;5104566;28;19967;-46
2021/07/24 12:18:17;;;;;;;;;;;27.00;92.20;;;;;;5104223;28;19912;-43
2021/07/24 12:20:44;;;;;;;;;;;27.00;92.40;;;;;;5104457;28;19900;-53
2021/07/24 12:23:22;;;;;;;;;;;27.00;92.60;;;;;;5104640;28;19945;-49
2021/07/24 12:26:08;;;;;;;;;;;27.00;92.40;;;;;;5104682;28;19932;-45
2021/07/24 12:28:34;;;;;;;;;;;27.10;92.30;;;;;;5104657;28;19912;-51
2021/07/24 12:31:21;;;;;;;;;;;27.20;92.30;;;;;;5104456;28;19904;-45
2021/07/24 12:33:48;;;;;;;;;;;27.20;92.10;;;;;;5104591;28;20182;-45
2021/07/24 12:36:15;;;;;;;;;;;27.20;92.00;;;;;;5104335;28;19916;-48
2021/07/24 12:38:41;;;;;;;;;;;27.20;92.10;;;;;;5086380;28;19904;-46
2021/07/24 12:41:07;;;;;;;;;;;27.20;92.10;;;;;;5104470;28;19908;-46
2021/07/24 12:43:36;;;;;;;;;;;27.20;92.20;;;;;;5085120;28;20084;-44
2021/07/24 12:46:17;;;;;;;;;;;27.30;92.10;;;;;;5084089;28;19901;-49
2021/07/24 12:48:45;;;;;;;;;;;27.30;92.10;;;;;;5098016;28;19930;-43
2021/07/24 12:51:16;;;;;;;;;;;27.30;92.20;;;;;;5104307;28;19907;-45
2021/07/24 12:53:45;;;;;;;;;;;27.40;92.20;;;;;;5106232;28;19981;-51
2021/07/24 12:56:12;;;;;;;;;;;27.40;92.20;;;;;;5108456;28;20234;-42
2021/07/24 12:58:39;;;;;;;;;;;27.40;92.20;;;;;;5108254;28;19919;-42
2021/07/24 13:01:09;;;;;;;;;;;27.50;92.10;;;;;;5108265;28;19900;-44
2021/07/24 13:03:38;;;;;;;;;;;27.50;91.90;;;;;;5089987;28;19950;-46
2021/07/24 13:06:04;;;;;;;;;;;27.60;91.80;;;;;;5108023;28;20184;-48
2021/07/24 13:08:30;;;;;;;;;;;27.60;92.00;;;;;;5108290;28;19908;-45
2021/07/24 13:10:57;;;;;;;;;;;27.60;92.00;;;;;;5107981;28;19900;-49
2021/07/24 13:13:23;;;;;;;;;;;27.60;92.10;;;;;;5101680;28;19908;-45
2021/07/24 13:15:49;;;;;;;;;;;27.60;92.10;;;;;;5096644;28;19945;-45
2021/07/24 13:18:15;;;;;;;;;;;27.60;92.20;;;;;;5098418;28;19923;-45
2021/07/24 13:20:41;;;;;;;;;;;27.60;92.20;;;;;;5096918;28;19900;-44
2021/07/24 13:23:08;;;;;;;;;;;27.60;92.30;;;;;;5097149;28;19922;-46
2021/07/24 13:28:18;;;;;;;;;;;27.70;92.30;;;;;;5097521;28;19950;-45
2021/07/24 13:30:45;;;;;;;;;;;27.70;92.40;;;;;;5091223;28;19904;-48
2021/07/24 13:33:12;;;;;;;;;;;27.80;92.40;;;;;;5070350;28;19904;-49
2021/07/24 13:35:39;;;;;;;;;;;27.80;92.30;;;;;;5070356;28;19900;-44
2021/07/24 13:38:06;;;;;;;;;;;27.80;92.10;;;;;;5087306;28;19947;-45
2021/07/24 13:40:32;;;;;;;;;;;27.90;92.20;;;;;;5087275;28;19907;-44
2021/07/24 13:43:01;;;;;;;;;;;27.90;92.20;;;;;;5087507;28;19943;-42
2021/07/24 13:45:27;;;;;;;;;;;28.00;92.30;;;;;;5087335;28;19900;-48
2021/07/24 13:47:54;;;;;;;;;;;28.00;92.30;;;;;;5087641;28;19908;-42
2021/07/24 13:50:20;;;;;;;;;;;28.00;92.10;;;;;;5086857;28;19904;-47
2021/07/24 13:52:46;;;;;;;;;;;28.00;92.00;;;;;;5086993;28;19908;-49
2021/07/24 13:55:12;;;;;;;;;;;28.00;92.00;;;;;;5086894;28;19912;-43
2021/07/24 13:57:39;;;;;;;;;;;28.00;92.10;;;;;;5087092;28;19912;-45
2021/07/24 14:00:06;;;;;;;;;;;28.00;92.20;;;;;;5086815;28;20189;-46
2021/07/24 14:02:35;;;;;;;;;;;28.00;92.10;;;;;;5087192;28;19931;-46
2021/07/24 14:05:02;;;;;;;;;;;28.00;91.90;;;;;;5085904;28;19907;-48
2021/07/24 14:07:28;;;;;;;;;;;28.00;91.90;;;;;;5089708;28;19966;-47
2021/07/24 14:09:58;;;;;;;;;;;28.00;91.50;;;;;;5070000;28;20128;-49
2021/07/24 14:12:24;;;;;;;;;;;28.00;91.70;;;;;;5095603;28;19931;-45
2021/07/24 14:14:51;;;;;;;;;;;28.00;91.80;;;;;;5091565;28;19971;-45
2021/07/24 14:17:18;;;;;;;;;;;28.00;91.80;;;;;;5094042;28;20242;-43
2021/07/24 14:19:44;;;;;;;;;;;28.00;91.90;;;;;;5055217;28;19907;-44
2021/07/24 14:22:10;;;;;;;;;;;28.00;92.00;;;;;;5089254;28;19908;-46
2021/07/24 14:24:36;;;;;;;;;;;28.00;92.20;;;;;;5068241;28;19912;-46
2021/07/24 14:27:03;;;;;;;;;;;28.00;92.00;;;;;;5100041;28;19943;-46